sensor_id;sensor_type;location;lat;lon;timestamp;pressure;altitude;pressure_sealevel;temperature;humidity
18697;BME280;22617;43.690;27.956;2022-12-07T00:04:25;99002.53;;;6.85;100.00
18697;BME280;22617;43.690;27.956;2022-12-07T00:09:29;99001.56;;;6.78;100.00
18697;BME280;22617;43.690;27.956;2022-12-07T00:14:32;98997.22;;;6.77;100.00
18697;BME280;22617;43.690;27.956;2022-12-07T00:19:37;99000.69;;;6.78;100.00
18697;BME280;22617;43.690;27.956;2022-12-07T00:24:41;99001.66;;;6.84;100.00
18697;BME280;22617;43.690;27.956;2022-12-07T00:29:44;98986.22;;;6.95;100.00
18697;BME280;22617;43.690;27.956;2022-12-07T00:34:49;98990.56;;;6.97;100.00
18697;BME280;22617;43.690;27.956;2022-12-07T00:39:52;98986.31;;;7.06;100.00
18697;BME280;22617;43.690;27.956;2022-12-07T00:44:56;98982.03;;;7.11;100.00
18697;BME280;22617;43.690;27.956;2022-12-07T00:50:01;98981.16;;;7.09;100.00
18697;BME280;22617;43.690;27.956;2022-12-07T00:55:05;98978.56;;;7.07;100.00
18697;BME280;22617;43.690;27.956;2022-12-07T01:00:09;98976.75;;;7.01;100.00
18697;BME280;22617;43.690;27.956;2022-12-07T01:05:14;98976.75;;;6.98;100.00
18697;BME280;22617;43.690;27.956;2022-12-07T01:10:18;98961.16;;;6.94;100.00
18697;BME280;22617;43.690;27.956;2022-12-07T01:15:21;98955.97;;;6.94;100.00
18697;BME280;22617;43.690;27.956;2022-12-07T01:20:26;98945.59;;;6.92;100.00
18697;BME280;22617;43.690;27.956;2022-12-07T01:25:30;98959.31;;;6.84;100.00
18697;BME280;22617;43.690;27.956;2022-12-07T01:30:33;98949.78;;;6.78;100.00
18697;BME280;22617;43.690;27.956;2022-12-07T01:35:38;98955.84;;;6.82;100.00
18697;BME280;22617;43.690;27.956;2022-12-07T01:40:41;98950.63;;;6.76;100.00
18697;BME280;22617;43.690;27.956;2022-12-07T01:45:45;98937.66;;;6.77;100.00
18697;BME280;22617;43.690;27.956;2022-12-07T01:50:51;98948.88;;;6.76;100.00
18697;BME280;22617;43.690;27.956;2022-12-07T01:55:57;98943.56;;;6.64;100.00
18697;BME280;22617;43.690;27.956;2022-12-07T02:01:02;98947.84;;;6.59;100.00
18697;BME280;22617;43.690;27.956;2022-12-07T02:06:07;98940.06;;;6.59;100.00
18697;BME280;22617;43.690;27.956;2022-12-07T02:11:11;98940.78;;;6.46;100.00
18697;BME280;22617;43.690;27.956;2022-12-07T02:16:23;98946.81;;;6.45;100.00
18697;BME280;22617;43.690;27.956;2022-12-07T02:21:36;98931.28;;;6.45;100.00
18697;BME280;22617;43.690;27.956;2022-12-07T02:27:01;98935.66;;;6.47;100.00
18697;BME280;22617;43.690;27.956;2022-12-07T02:32:15;98930.41;;;6.41;100.00
18697;BME280;22617;43.690;27.956;2022-12-07T02:37:29;98925.06;;;6.28;100.00
18697;BME280;22617;43.690;27.956;2022-12-07T02:42:39;98923.41;;;6.34;100.00
18697;BME280;22617;43.690;27.956;2022-12-07T02:47:49;98922.56;;;6.35;100.00
18697;BME280;22617;43.690;27.956;2022-12-07T02:52:54;98921.69;;;6.35;100.00
18697;BME280;22617;43.690;27.956;2022-12-07T02:58:15;98917.53;;;6.49;100.00
18697;BME280;22617;43.690;27.956;2022-12-07T03:03:24;98918.50;;;6.60;100.00
18697;BME280;22617;43.690;27.956;2022-12-07T03:08:33;98910.84;;;6.69;100.00
18697;BME280;22617;43.690;27.956;2022-12-07T03:13:45;98919.41;;;6.67;100.00
18697;BME280;22617;43.690;27.956;2022-12-07T03:18:55;98901.25;;;6.62;100.00
18697;BME280;22617;43.690;27.956;2022-12-07T03:24:03;98919.41;;;6.64;100.00
18697;BME280;22617;43.690;27.956;2022-12-07T03:29:12;98914.22;;;6.61;100.00
18697;BME280;22617;43.690;27.956;2022-12-07T03:34:23;98924.47;;;6.53;100.00
18697;BME280;22617;43.690;27.956;2022-12-07T03:39:32;98911.47;;;6.48;100.00
18697;BME280;22617;43.690;27.956;2022-12-07T03:44:39;98917.53;;;6.49;100.00
18697;BME280;22617;43.690;27.956;2022-12-07T03:49:48;98930.41;;;6.44;100.00
18697;BME280;22617;43.690;27.956;2022-12-07T03:54:56;98918.41;;;6.51;100.00
18697;BME280;22617;43.690;27.956;2022-12-07T04:00:05;98916.59;;;6.42;100.00
18697;BME280;22617;43.690;27.956;2022-12-07T04:05:16;98917.44;;;6.43;100.00
18697;BME280;22617;43.690;27.956;2022-12-07T04:10:20;98915.00;;;6.52;100.00
18697;BME280;22617;43.690;27.956;2022-12-07T04:15:24;98912.44;;;6.56;100.00
18697;BME280;22617;43.690;27.956;2022-12-07T04:20:28;98907.31;;;6.64;100.00
18697;BME280;22617;43.690;27.956;2022-12-07T04:25:32;98911.69;;;6.68;100.00
18697;BME280;22617;43.690;27.956;2022-12-07T04:30:35;98900.47;;;6.69;100.00
18697;BME280;22617;43.690;27.956;2022-12-07T04:35:42;98895.31;;;6.71;100.00
18697;BME280;22617;43.690;27.956;2022-12-07T04:40:45;98903.94;;;6.70;100.00
18697;BME280;22617;43.690;27.956;2022-12-07T04:45:48;98902.22;;;6.70;100.00
18697;BME280;22617;43.690;27.956;2022-12-07T04:50:54;98910.88;;;6.74;100.00
18697;BME280;22617;43.690;27.956;2022-12-07T04:55:58;98919.50;;;6.71;100.00
18697;BME280;22617;43.690;27.956;2022-12-07T05:01:03;98926.34;;;6.66;100.00
18697;BME280;22617;43.690;27.956;2022-12-07T05:06:08;98911.66;;;6.65;100.00
18697;BME280;22617;43.690;27.956;2022-12-07T05:11:14;98910.03;;;6.75;99.67
18697;BME280;22617;43.690;27.956;2022-12-07T05:16:32;98919.53;;;6.76;99.88
18697;BME280;22617;43.690;27.956;2022-12-07T05:21:37;98921.31;;;6.83;99.91
18697;BME280;22617;43.690;27.956;2022-12-07T05:26:41;98915.31;;;6.85;99.96
18697;BME280;22617;43.690;27.956;2022-12-07T05:31:45;98922.19;;;6.83;99.27
18697;BME280;22617;43.690;27.956;2022-12-07T05:36:50;98911.00;;;6.87;99.72
18697;BME280;22617;43.690;27.956;2022-12-07T05:41:54;98913.63;;;6.90;99.74
18697;BME280;22617;43.690;27.956;2022-12-07T05:47:16;98916.16;;;6.86;99.93
18697;BME280;22617;43.690;27.956;2022-12-07T05:52:21;98916.25;;;6.93;99.82
18697;BME280;22617;43.690;27.956;2022-12-07T05:57:24;98920.59;;;6.97;99.75
18697;BME280;22617;43.690;27.956;2022-12-07T06:02:27;98925.84;;;7.04;99.58
18697;BME280;22617;43.690;27.956;2022-12-07T06:07:32;98926.00;;;7.25;99.56
18697;BME280;22617;43.690;27.956;2022-12-07T06:12:36;98928.56;;;7.22;99.26
18697;BME280;22617;43.690;27.956;2022-12-07T06:17:41;98943.44;;;7.45;99.33
18697;BME280;22617;43.690;27.956;2022-12-07T06:22:46;98945.09;;;7.33;98.56
18697;BME280;22617;43.690;27.956;2022-12-07T06:27:49;98940.75;;;7.29;98.58
18697;BME280;22617;43.690;27.956;2022-12-07T06:32:52;98932.09;;;7.28;98.35
18697;BME280;22617;43.690;27.956;2022-12-07T06:37:57;98937.31;;;7.33;98.78
18697;BME280;22617;43.690;27.956;2022-12-07T06:43:01;98940.81;;;7.38;98.52
18697;BME280;22617;43.690;27.956;2022-12-07T06:48:04;98940.84;;;7.42;98.35
18697;BME280;22617;43.690;27.956;2022-12-07T06:53:09;98929.66;;;7.48;98.04
18697;BME280;22617;43.690;27.956;2022-12-07T06:58:13;98940.03;;;7.54;98.14
18697;BME280;22617;43.690;27.956;2022-12-07T07:03:16;98934.16;;;7.76;97.50
18697;BME280;22617;43.690;27.956;2022-12-07T07:08:22;98939.38;;;7.81;96.92
18697;BME280;22617;43.690;27.956;2022-12-07T07:13:25;98942.00;;;7.85;95.70
18697;BME280;22617;43.690;27.956;2022-12-07T07:18:29;98945.47;;;7.91;95.55
18697;BME280;22617;43.690;27.956;2022-12-07T07:23:33;98948.09;;;7.94;95.02
18697;BME280;22617;43.690;27.956;2022-12-07T07:28:37;98940.41;;;8.10;94.70
18697;BME280;22617;43.690;27.956;2022-12-07T07:33:41;98938.72;;;8.26;94.46
18697;BME280;22617;43.690;27.956;2022-12-07T07:38:46;98952.66;;;8.40;92.73
18697;BME280;22617;43.690;27.956;2022-12-07T07:43:49;98959.50;;;8.23;91.76
18697;BME280;22617;43.690;27.956;2022-12-07T07:48:52;98961.22;;;8.24;91.93
18697;BME280;22617;43.690;27.956;2022-12-07T07:53:57;98954.44;;;8.50;92.30
18697;BME280;22617;43.690;27.956;2022-12-07T07:59:01;98957.94;;;8.63;92.29
18697;BME280;22617;43.690;27.956;2022-12-07T08:04:04;98961.41;;;8.74;91.33
18697;BME280;22617;43.690;27.956;2022-12-07T08:09:09;98960.59;;;8.77;89.81
18697;BME280;22617;43.690;27.956;2022-12-07T08:14:13;98958.00;;;8.93;89.67
18697;BME280;22617;43.690;27.956;2022-12-07T08:19:16;98977.06;;;8.86;89.59
18697;BME280;22617;43.690;27.956;2022-12-07T08:24:21;98963.19;;;8.93;89.57
18697;BME280;22617;43.690;27.956;2022-12-07T08:29:24;98961.50;;;9.00;89.03
18697;BME280;22617;43.690;27.956;2022-12-07T08:34:28;98958.03;;;9.13;88.57
18697;BME280;22617;43.690;27.956;2022-12-07T08:39:33;98951.09;;;9.04;88.21
18697;BME280;22617;43.690;27.956;2022-12-07T08:44:36;98948.50;;;9.10;89.46
18697;BME280;22617;43.690;27.956;2022-12-07T08:49:43;98949.38;;;9.37;89.73
18697;BME280;22617;43.690;27.956;2022-12-07T08:54:49;98944.19;;;9.23;88.48
18697;BME280;22617;43.690;27.956;2022-12-07T08:59:52;98925.97;;;9.18;89.11
18697;BME280;22617;43.690;27.956;2022-12-07T09:04:55;98926.84;;;9.25;89.34
18697;BME280;22617;43.690;27.956;2022-12-07T09:10:00;98928.53;;;9.55;90.23
18697;BME280;22617;43.690;27.956;2022-12-07T09:15:05;98934.59;;;9.71;88.47
18697;BME280;22617;43.690;27.956;2022-12-07T09:20:09;98929.41;;;9.78;88.38
18697;BME280;22617;43.690;27.956;2022-12-07T09:25:15;98918.06;;;9.90;87.26
18697;BME280;22617;43.690;27.956;2022-12-07T09:30:18;98913.66;;;10.08;86.13
18697;BME280;22617;43.690;27.956;2022-12-07T09:35:23;98911.94;;;10.09;86.44
18697;BME280;22617;43.690;27.956;2022-12-07T09:40:28;98901.53;;;10.11;85.06
18697;BME280;22617;43.690;27.956;2022-12-07T09:45:34;98895.34;;;10.37;84.90
18697;BME280;22617;43.690;27.956;2022-12-07T09:50:39;98889.78;;;10.98;83.36
18697;BME280;22617;43.690;27.956;2022-12-07T09:55:44;98886.94;;;11.24;81.57
18697;BME280;22617;43.690;27.956;2022-12-07T10:00:48;98872.19;;;12.08;80.04
18697;BME280;22617;43.690;27.956;2022-12-07T10:05:52;98869.59;;;12.04;76.06
18697;BME280;22617;43.690;27.956;2022-12-07T10:10:59;98867.44;;;12.38;75.54
18697;BME280;22617;43.690;27.956;2022-12-07T10:16:06;98860.09;;;12.64;75.61
18697;BME280;22617;43.690;27.956;2022-12-07T10:21:13;98868.31;;;12.96;73.64
18697;BME280;22617;43.690;27.956;2022-12-07T10:26:27;98858.81;;;12.31;74.89
18697;BME280;22617;43.690;27.956;2022-12-07T10:31:31;98858.41;;;12.60;74.29
18697;BME280;22617;43.690;27.956;2022-12-07T10:36:36;98859.88;;;12.18;73.66
18697;BME280;22617;43.690;27.956;2022-12-07T10:41:54;98834.81;;;12.64;74.20
18697;BME280;22617;43.690;27.956;2022-12-07T10:47:15;98830.75;;;12.47;74.11
18697;BME280;22617;43.690;27.956;2022-12-07T10:58:13;98824.13;;;12.18;74.86
18697;BME280;22617;43.690;27.956;2022-12-07T11:03:29;98817.69;;;11.78;75.12
18697;BME280;22617;43.690;27.956;2022-12-07T11:08:47;98813.97;;;11.99;73.43
18697;BME280;22617;43.690;27.956;2022-12-07T11:14:00;98804.47;;;11.90;74.14
18697;BME280;22617;43.690;27.956;2022-12-07T11:24:40;98812.94;;;11.34;76.06
18697;BME280;22617;43.690;27.956;2022-12-07T11:30:16;98809.50;;;11.27;76.91
18697;BME280;22617;43.690;27.956;2022-12-07T11:35:41;98817.59;;;11.00;76.67
18697;BME280;22617;43.690;27.956;2022-12-07T11:40:50;98811.75;;;10.72;77.27
18697;BME280;22617;43.690;27.956;2022-12-07T11:46:00;98814.41;;;10.66;78.14
18697;BME280;22617;43.690;27.956;2022-12-07T11:51:09;98808.34;;;10.63;78.53
18697;BME280;22617;43.690;27.956;2022-12-07T11:56:15;98806.56;;;10.68;78.46
18697;BME280;22617;43.690;27.956;2022-12-07T12:01:31;98793.63;;;10.59;79.25
18697;BME280;22617;43.690;27.956;2022-12-07T12:06:37;98777.00;;;10.72;79.10
18697;BME280;22617;43.690;27.956;2022-12-07T12:12:00;98771.91;;;10.57;80.19
18697;BME280;22617;43.690;27.956;2022-12-07T12:17:50;98773.63;;;10.56;79.36
18697;BME280;22617;43.690;27.956;2022-12-07T12:23:01;98762.41;;;10.49;79.46
18697;BME280;22617;43.690;27.956;2022-12-07T12:28:20;98767.59;;;10.54;78.80
18697;BME280;22617;43.690;27.956;2022-12-07T12:33:28;98760.53;;;10.67;79.60
18697;BME280;22617;43.690;27.956;2022-12-07T12:38:33;98761.44;;;10.63;79.29
18697;BME280;22617;43.690;27.956;2022-12-07T12:43:51;98765.00;;;10.53;80.34
18697;BME280;22617;43.690;27.956;2022-12-07T12:49:15;98768.50;;;10.48;80.34
18697;BME280;22617;43.690;27.956;2022-12-07T12:54:35;98770.31;;;10.37;79.99
18697;BME280;22617;43.690;27.956;2022-12-07T12:59:41;98769.44;;;10.38;80.05
18697;BME280;22617;43.690;27.956;2022-12-07T13:04:52;98764.28;;;10.28;80.25
18697;BME280;22617;43.690;27.956;2022-12-07T13:09:56;98768.59;;;10.32;80.42
18697;BME280;22617;43.690;27.956;2022-12-07T13:15:00;98766.94;;;10.26;81.04
18697;BME280;22617;43.690;27.956;2022-12-07T13:20:08;98763.44;;;10.27;81.11
18697;BME280;22617;43.690;27.956;2022-12-07T13:25:22;98755.66;;;10.24;81.27
18697;BME280;22617;43.690;27.956;2022-12-07T13:30:29;98757.34;;;10.28;80.85
18697;BME280;22617;43.690;27.956;2022-12-07T13:35:37;98753.91;;;10.26;80.72
18697;BME280;22617;43.690;27.956;2022-12-07T13:40:40;98746.16;;;10.16;81.15
18697;BME280;22617;43.690;27.956;2022-12-07T13:45:44;98751.34;;;10.14;82.04
18697;BME280;22617;43.690;27.956;2022-12-07T13:50:55;98758.31;;;10.07;82.21
18697;BME280;22617;43.690;27.956;2022-12-07T13:56:00;98750.56;;;10.00;82.48
18697;BME280;22617;43.690;27.956;2022-12-07T14:01:05;98754.06;;;9.94;82.67
18697;BME280;22617;43.690;27.956;2022-12-07T14:06:23;98757.63;;;9.78;83.49
18697;BME280;22617;43.690;27.956;2022-12-07T14:11:29;98755.94;;;9.67;84.53
18697;BME280;22617;43.690;27.956;2022-12-07T14:16:35;98763.75;;;9.60;85.21
18697;BME280;22617;43.690;27.956;2022-12-07T14:21:41;98765.50;;;9.61;84.91
18697;BME280;22617;43.690;27.956;2022-12-07T14:26:49;98760.34;;;9.52;85.63
18697;BME280;22617;43.690;27.956;2022-12-07T14:31:54;98775.09;;;9.47;86.27
18697;BME280;22617;43.690;27.956;2022-12-07T14:36:59;98762.13;;;9.38;85.95
18697;BME280;22617;43.690;27.956;2022-12-07T14:42:02;98769.94;;;9.32;85.34
18697;BME280;22617;43.690;27.956;2022-12-07T14:47:08;98770.00;;;9.11;86.94
18697;BME280;22617;43.690;27.956;2022-12-07T14:52:33;98770.84;;;9.10;86.52
18697;BME280;22617;43.690;27.956;2022-12-07T14:57:58;98768.22;;;9.11;86.99
18697;BME280;22617;43.690;27.956;2022-12-07T15:03:01;98775.19;;;9.08;86.48
18697;BME280;22617;43.690;27.956;2022-12-07T15:08:08;98782.13;;;8.95;86.18
18697;BME280;22617;43.690;27.956;2022-12-07T15:13:12;98783.00;;;8.90;86.20
18697;BME280;22617;43.690;27.956;2022-12-07T15:18:33;98790.81;;;8.84;86.43
18697;BME280;22617;43.690;27.956;2022-12-07T15:23:37;98789.09;;;8.77;86.89
18697;BME280;22617;43.690;27.956;2022-12-07T15:28:41;98789.06;;;8.73;87.04
18697;BME280;22617;43.690;27.956;2022-12-07T15:33:45;98797.75;;;8.66;86.59
18697;BME280;22617;43.690;27.956;2022-12-07T15:38:50;98790.78;;;8.46;86.57
18697;BME280;22617;43.690;27.956;2022-12-07T15:44:14;98799.44;;;8.29;86.80
18697;BME280;22617;43.690;27.956;2022-12-07T15:49:35;98810.66;;;8.19;87.40
18697;BME280;22617;43.690;27.956;2022-12-07T15:54:39;98807.16;;;8.14;87.68
18697;BME280;22617;43.690;27.956;2022-12-07T15:59:43;98808.84;;;8.06;87.62
18697;BME280;22617;43.690;27.956;2022-12-07T16:04:46;98810.53;;;7.87;87.45
18697;BME280;22617;43.690;27.956;2022-12-07T16:09:51;98809.66;;;7.81;88.29
18697;BME280;22617;43.690;27.956;2022-12-07T16:14:54;98829.50;;;7.74;88.36
18697;BME280;22617;43.690;27.956;2022-12-07T16:19:58;98821.66;;;7.58;87.93
18697;BME280;22617;43.690;27.956;2022-12-07T16:25:03;98826.84;;;7.59;87.80
18697;BME280;22617;43.690;27.956;2022-12-07T16:30:08;98821.63;;;7.52;87.64
18697;BME280;22617;43.690;27.956;2022-12-07T16:35:12;98821.47;;;7.23;86.89
18697;BME280;22617;43.690;27.956;2022-12-07T16:40:17;98824.91;;;7.19;88.03
18697;BME280;22617;43.690;27.956;2022-12-07T16:45:20;98828.41;;;7.27;88.65
18697;BME280;22617;43.690;27.956;2022-12-07T16:50:24;98820.47;;;7.03;87.92
18697;BME280;22617;43.690;27.956;2022-12-07T16:55:29;98809.91;;;6.81;87.90
18697;BME280;22617;43.690;27.956;2022-12-07T17:00:33;98808.16;;;6.77;88.38
18697;BME280;22617;43.690;27.956;2022-12-07T17:05:38;98799.50;;;6.72;89.52
18697;BME280;22617;43.690;27.956;2022-12-07T17:10:44;98811.94;;;7.19;91.75
18697;BME280;22617;43.690;27.956;2022-12-07T17:15:55;98806.00;;;7.41;93.35
18697;BME280;22617;43.690;27.956;2022-12-07T17:21:02;98800.06;;;7.65;94.54
18697;BME280;22617;43.690;27.956;2022-12-07T17:26:10;98800.94;;;7.61;95.15
18697;BME280;22617;43.690;27.956;2022-12-07T17:31:15;98806.09;;;7.59;95.51
18697;BME280;22617;43.690;27.956;2022-12-07T17:36:21;98802.63;;;7.53;95.95
18697;BME280;22617;43.690;27.956;2022-12-07T17:41:27;98799.97;;;7.45;96.24
18697;BME280;22617;43.690;27.956;2022-12-07T17:46:50;98804.25;;;7.40;96.70
18697;BME280;22617;43.690;27.956;2022-12-07T17:51:56;98812.03;;;7.40;97.54
18697;BME280;22617;43.690;27.956;2022-12-07T17:57:18;98805.13;;;7.37;97.62
18697;BME280;22617;43.690;27.956;2022-12-07T18:02:21;98795.66;;;7.49;98.26
18697;BME280;22617;43.690;27.956;2022-12-07T18:07:25;98791.34;;;7.49;98.73
18697;BME280;22617;43.690;27.956;2022-12-07T18:12:30;98791.34;;;7.49;99.19
18697;BME280;22617;43.690;27.956;2022-12-07T18:17:33;98783.59;;;7.48;99.64
18697;BME280;22617;43.690;27.956;2022-12-07T18:22:37;98781.00;;;7.55;100.00
18697;BME280;22617;43.690;27.956;2022-12-07T18:27:42;98781.88;;;7.53;100.00
18697;BME280;22617;43.690;27.956;2022-12-07T18:32:45;98785.38;;;7.62;100.00
18697;BME280;22617;43.690;27.956;2022-12-07T18:37:49;98787.09;;;7.57;100.00
18697;BME280;22617;43.690;27.956;2022-12-07T18:42:53;98781.91;;;7.62;100.00
18697;BME280;22617;43.690;27.956;2022-12-07T18:47:58;98787.06;;;7.54;100.00
18697;BME280;22617;43.690;27.956;2022-12-07T18:53:03;98787.91;;;7.53;100.00
18697;BME280;22617;43.690;27.956;2022-12-07T18:58:08;98781.00;;;7.52;100.00
18697;BME280;22617;43.690;27.956;2022-12-07T19:03:11;98793.91;;;7.44;100.00
18697;BME280;22617;43.690;27.956;2022-12-07T19:08:15;98791.34;;;7.49;100.00
18697;BME280;22617;43.690;27.956;2022-12-07T19:13:20;98788.75;;;7.46;100.00
18697;BME280;22617;43.690;27.956;2022-12-07T19:18:23;98779.22;;;7.43;100.00
18697;BME280;22617;43.690;27.956;2022-12-07T19:23:26;98776.63;;;7.45;100.00
18697;BME280;22617;43.690;27.956;2022-12-07T19:28:32;98784.47;;;7.53;100.00
18697;BME280;22617;43.690;27.956;2022-12-07T19:33:35;98778.38;;;7.49;100.00
18697;BME280;22617;43.690;27.956;2022-12-07T19:38:38;98779.28;;;7.51;100.00
18697;BME280;22617;43.690;27.956;2022-12-07T19:43:43;98771.50;;;7.54;100.00
18697;BME280;22617;43.690;27.956;2022-12-07T19:48:47;98768.94;;;7.60;100.00
18697;BME280;22617;43.690;27.956;2022-12-07T19:53:50;98767.19;;;7.56;100.00
18697;BME280;22617;43.690;27.956;2022-12-07T19:58:57;98768.94;;;7.60;100.00
18697;BME280;22617;43.690;27.956;2022-12-07T20:04:03;98770.69;;;7.67;100.00
18697;BME280;22617;43.690;27.956;2022-12-07T20:09:07;98769.84;;;7.73;100.00
18697;BME280;22617;43.690;27.956;2022-12-07T20:14:13;98767.25;;;7.71;100.00
18697;BME280;22617;43.690;27.956;2022-12-07T20:19:16;98768.97;;;7.72;100.00
18697;BME280;22617;43.690;27.956;2022-12-07T20:24:22;98761.19;;;7.69;100.00
18697;BME280;22617;43.690;27.956;2022-12-07T20:29:27;98770.69;;;7.73;100.00
18697;BME280;22617;43.690;27.956;2022-12-07T20:34:30;98780.22;;;7.73;100.00
18697;BME280;22617;43.690;27.956;2022-12-07T20:39:33;98784.56;;;7.77;100.00
18697;BME280;22617;43.690;27.956;2022-12-07T20:44:38;98787.16;;;7.75;99.69
18697;BME280;22617;43.690;27.956;2022-12-07T20:49:42;98792.38;;;7.81;98.48
18697;BME280;22617;43.690;27.956;2022-12-07T20:54:45;98795.00;;;7.94;97.96
18697;BME280;22617;43.690;27.956;2022-12-07T20:59:50;98792.41;;;7.95;97.36
18697;BME280;22617;43.690;27.956;2022-12-07T21:04:53;98789.81;;;7.91;96.78
18697;BME280;22617;43.690;27.956;2022-12-07T21:09:57;98791.50;;;7.85;95.98
18697;BME280;22617;43.690;27.956;2022-12-07T21:15:02;98794.97;;;7.87;95.80
18697;BME280;22617;43.690;27.956;2022-12-07T21:20:07;98798.44;;;7.89;95.18
18697;BME280;22617;43.690;27.956;2022-12-07T21:25:11;98798.44;;;7.89;95.51
18697;BME280;22617;43.690;27.956;2022-12-07T21:30:16;98804.50;;;7.95;95.32
18697;BME280;22617;43.690;27.956;2022-12-07T21:35:19;98804.50;;;7.90;95.13
18697;BME280;22617;43.690;27.956;2022-12-07T21:40:23;98806.25;;;7.94;95.82
18697;BME280;22617;43.690;27.956;2022-12-07T21:45:27;98807.94;;;7.87;96.16
18697;BME280;22617;43.690;27.956;2022-12-07T21:50:32;98800.22;;;8.00;96.56
18697;BME280;22617;43.690;27.956;2022-12-07T21:55:38;98804.50;;;7.93;96.86
18697;BME280;22617;43.690;27.956;2022-12-07T22:00:43;98806.19;;;7.83;97.45
18697;BME280;22617;43.690;27.956;2022-12-07T22:05:46;98793.22;;;7.80;98.20
18697;BME280;22617;43.690;27.956;2022-12-07T22:10:50;98791.47;;;7.78;98.28
18697;BME280;22617;43.690;27.956;2022-12-07T22:15:55;98791.44;;;7.73;98.96
18697;BME280;22617;43.690;27.956;2022-12-07T22:20:58;98788.81;;;7.64;99.81
18697;BME280;22617;43.690;27.956;2022-12-07T22:26:04;98795.75;;;7.65;100.00
18697;BME280;22617;43.690;27.956;2022-12-07T22:31:11;98791.38;;;7.58;100.00
18697;BME280;22617;43.690;27.956;2022-12-07T22:36:15;98784.50;;;7.63;100.00
18697;BME280;22617;43.690;27.956;2022-12-07T22:41:21;98787.97;;;7.65;100.00
18697;BME280;22617;43.690;27.956;2022-12-07T22:46:27;98791.38;;;7.58;100.00
18697;BME280;22617;43.690;27.956;2022-12-07T22:51:32;98786.16;;;7.49;100.00
18697;BME280;22617;43.690;27.956;2022-12-07T22:56:37;98783.53;;;7.40;100.00
18697;BME280;22617;43.690;27.956;2022-12-07T23:01:42;98778.31;;;7.35;100.00
18697;BME280;22617;43.690;27.956;2022-12-07T23:06:45;98769.66;;;7.30;100.00
18697;BME280;22617;43.690;27.956;2022-12-07T23:11:49;98776.56;;;7.27;100.00
18697;BME280;22617;43.690;27.956;2022-12-07T23:17:11;98767.91;;;7.29;100.00
18697;BME280;22617;43.690;27.956;2022-12-07T23:22:14;98765.34;;;7.28;100.00
18697;BME280;22617;43.690;27.956;2022-12-07T23:27:18;98765.34;;;7.35;100.00
18697;BME280;22617;43.690;27.956;2022-12-07T23:32:22;98760.16;;;7.31;100.00
18697;BME280;22617;43.690;27.956;2022-12-07T23:37:26;98763.59;;;7.24;100.00
18697;BME280;22617;43.690;27.956;2022-12-07T23:42:29;98769.59;;;7.20;100.00
18697;BME280;22617;43.690;27.956;2022-12-07T23:47:34;98772.19;;;7.20;100.00
18697;BME280;22617;43.690;27.956;2022-12-07T23:52:37;98772.16;;;7.14;100.00
18697;BME280;22617;43.690;27.956;2022-12-07T23:57:41;98773.09;;;7.23;100.00
